CCM63P LFKJ-LIRF
Flight info
| Callsign | CCM63P |
|---|---|
| Flight time | N/A |
| Altitude | 15000 |
| Route | BTA DCT MOULE DCT XOPTA DCT ELB DCT ELKAP |
| Aircraft | A20N/M-SDE2E3FGHIRWXY/LB1 |
Departure
| Time | 2026-05-08 14:35 |
|---|---|
| Airport | Ajaccio Napoléon Bonaparte airport (LFKJ) |
Arrival
| Time | N/A |
|---|---|
| Airport | Rome–Fiumicino Leonardo da Vinci International Airport (LIRF) |
| Time | Latitude | Longitude | Altitude | Speed | Heading |
|---|---|---|---|---|---|
| 2026-05-08 14:23 | 41.92077 | 8.79642 | 34 ft | 0 kts | 344° |
| 2026-05-08 14:32 | 41.92085 | 8.79644 | 35 ft | 1 kts | 31° |
| 2026-05-08 14:32 | 41.92080 | 8.79665 | 34 ft | 4 kts | 115° |
| 2026-05-08 14:32 | 41.92082 | 8.79707 | 34 ft | 6 kts | 50° |
| 2026-05-08 14:32 | 41.92134 | 8.79755 | 35 ft | 12 kts | 24° |
| 2026-05-08 14:33 | 41.92244 | 8.79822 | 35 ft | 22 kts | 31° |
| 2026-05-08 14:33 | 41.92397 | 8.79918 | 35 ft | 24 kts | 26° |
| 2026-05-08 14:33 | 41.92548 | 8.80010 | 35 ft | 23 kts | 24° |
| 2026-05-08 14:33 | 41.92690 | 8.80099 | 36 ft | 22 kts | 27° |
| 2026-05-08 14:34 | 41.92826 | 8.80236 | 37 ft | 26 kts | 73° |
| 2026-05-08 14:34 | 41.92748 | 8.80457 | 38 ft | 17 kts | 158° |
| 2026-05-08 14:34 | 41.92702 | 8.80428 | 38 ft | 4 kts | 200° |
| 2026-05-08 14:34 | 41.92605 | 8.80373 | 37 ft | 51 kts | 205° |
| 2026-05-08 14:35 | 41.92032 | 8.80020 | 35 ft | 127 kts | 204° |
| 2026-05-08 14:35 | 41.91077 | 8.79418 | 352 ft | 159 kts | 207° |
| 2026-05-08 14:35 | 41.90165 | 8.78790 | 1207 ft | 150 kts | 212° |
| 2026-05-08 14:35 | 41.89289 | 8.77968 | 1826 ft | 160 kts | 218° |
| 2026-05-08 14:36 | 41.88361 | 8.77082 | 2351 ft | 172 kts | 217° |
| 2026-05-08 14:36 | 41.87333 | 8.76113 | 2802 ft | 189 kts | 216° |
| 2026-05-08 14:36 | 41.86170 | 8.75041 | 3021 ft | 217 kts | 215° |
| 2026-05-08 14:36 | 41.84805 | 8.73800 | 3098 ft | 254 kts | 215° |
| 2026-05-08 14:37 | 41.83314 | 8.72457 | 3799 ft | 265 kts | 214° |
| 2026-05-08 14:37 | 41.81769 | 8.71070 | 4648 ft | 271 kts | 214° |